sensor_id;sensor_type;location;lat;lon;timestamp;P1;durP1;ratioP1;P2;durP2;ratioP2
4915;SDS011;70796;52.406;13.230;2023-07-13T00:01:31;4.57;;;2.90;;
4915;SDS011;70796;52.406;13.230;2023-07-13T00:03:58;6.30;;;2.87;;
4915;SDS011;70796;52.406;13.230;2023-07-13T00:06:25;7.07;;;3.10;;
4915;SDS011;70796;52.406;13.230;2023-07-13T00:08:59;4.23;;;3.37;;
4915;SDS011;70796;52.406;13.230;2023-07-13T00:11:26;5.80;;;3.00;;
4915;SDS011;70796;52.406;13.230;2023-07-13T00:13:53;5.50;;;3.30;;
4915;SDS011;70796;52.406;13.230;2023-07-13T00:16:20;4.60;;;3.20;;
4915;SDS011;70796;52.406;13.230;2023-07-13T00:18:47;4.10;;;2.90;;
4915;SDS011;70796;52.406;13.230;2023-07-13T00:21:14;4.87;;;3.27;;
4915;SDS011;70796;52.406;13.230;2023-07-13T00:23:41;16.93;;;3.90;;
4915;SDS011;70796;52.406;13.230;2023-07-13T00:26:09;5.13;;;3.13;;
4915;SDS011;70796;52.406;13.230;2023-07-13T00:28:38;5.23;;;3.37;;
4915;SDS011;70796;52.406;13.230;2023-07-13T00:31:06;10.50;;;3.23;;
4915;SDS011;70796;52.406;13.230;2023-07-13T00:33:34;6.90;;;3.80;;
4915;SDS011;70796;52.406;13.230;2023-07-13T00:36:01;3.07;;;2.87;;
4915;SDS011;70796;52.406;13.230;2023-07-13T00:38:29;4.27;;;3.10;;
4915;SDS011;70796;52.406;13.230;2023-07-13T00:40:56;5.50;;;3.40;;
4915;SDS011;70796;52.406;13.230;2023-07-13T00:43:23;4.13;;;3.20;;
4915;SDS011;70796;52.406;13.230;2023-07-13T00:48:20;3.97;;;3.00;;
4915;SDS011;70796;52.406;13.230;2023-07-13T00:50:50;3.83;;;3.13;;
4915;SDS011;70796;52.406;13.230;2023-07-13T00:53:18;11.63;;;3.83;;
4915;SDS011;70796;52.406;13.230;2023-07-13T00:55:47;4.10;;;3.27;;
4915;SDS011;70796;52.406;13.230;2023-07-13T00:58:15;4.90;;;3.50;;
4915;SDS011;70796;52.406;13.230;2023-07-13T01:00:42;4.43;;;3.40;;
4915;SDS011;70796;52.406;13.230;2023-07-13T01:03:08;5.13;;;3.30;;
4915;SDS011;70796;52.406;13.230;2023-07-13T01:05:36;5.60;;;4.00;;
4915;SDS011;70796;52.406;13.230;2023-07-13T01:08:03;3.30;;;2.83;;
4915;SDS011;70796;52.406;13.230;2023-07-13T01:10:32;3.57;;;3.27;;
4915;SDS011;70796;52.406;13.230;2023-07-13T01:13:10;5.13;;;3.20;;
4915;SDS011;70796;52.406;13.230;2023-07-13T01:18:05;8.10;;;3.80;;
4915;SDS011;70796;52.406;13.230;2023-07-13T01:20:34;6.40;;;3.80;;
4915;SDS011;70796;52.406;13.230;2023-07-13T01:23:07;4.23;;;3.80;;
4915;SDS011;70796;52.406;13.230;2023-07-13T01:25:37;4.70;;;3.57;;
4915;SDS011;70796;52.406;13.230;2023-07-13T01:28:06;9.40;;;3.70;;
4915;SDS011;70796;52.406;13.230;2023-07-13T01:30:37;7.43;;;3.83;;
4915;SDS011;70796;52.406;13.230;2023-07-13T01:33:09;3.80;;;3.07;;
4915;SDS011;70796;52.406;13.230;2023-07-13T01:35:36;7.17;;;4.27;;
4915;SDS011;70796;52.406;13.230;2023-07-13T01:38:03;3.80;;;3.50;;
4915;SDS011;70796;52.406;13.230;2023-07-13T01:40:35;5.43;;;4.20;;
4915;SDS011;70796;52.406;13.230;2023-07-13T01:43:02;5.93;;;4.07;;
4915;SDS011;70796;52.406;13.230;2023-07-13T01:45:29;4.03;;;3.70;;
4915;SDS011;70796;52.406;13.230;2023-07-13T01:47:55;6.13;;;3.90;;
4915;SDS011;70796;52.406;13.230;2023-07-13T01:50:22;4.37;;;3.70;;
4915;SDS011;70796;52.406;13.230;2023-07-13T01:52:49;6.87;;;3.80;;
4915;SDS011;70796;52.406;13.230;2023-07-13T01:55:16;5.13;;;4.40;;
4915;SDS011;70796;52.406;13.230;2023-07-13T01:57:43;6.87;;;4.43;;
4915;SDS011;70796;52.406;13.230;2023-07-13T02:00:10;4.83;;;3.50;;
4915;SDS011;70796;52.406;13.230;2023-07-13T02:02:41;6.27;;;4.40;;
4915;SDS011;70796;52.406;13.230;2023-07-13T02:05:11;8.57;;;3.80;;
4915;SDS011;70796;52.406;13.230;2023-07-13T02:07:40;7.23;;;4.27;;
4915;SDS011;70796;52.406;13.230;2023-07-13T02:10:07;6.03;;;4.00;;
4915;SDS011;70796;52.406;13.230;2023-07-13T02:12:35;5.23;;;3.80;;
4915;SDS011;70796;52.406;13.230;2023-07-13T02:15:02;5.00;;;4.10;;
4915;SDS011;70796;52.406;13.230;2023-07-13T02:17:30;6.37;;;4.57;;
4915;SDS011;70796;52.406;13.230;2023-07-13T02:19:57;7.30;;;4.40;;
4915;SDS011;70796;52.406;13.230;2023-07-13T02:22:24;9.40;;;4.40;;
4915;SDS011;70796;52.406;13.230;2023-07-13T02:24:51;9.83;;;4.73;;
4915;SDS011;70796;52.406;13.230;2023-07-13T02:27:18;6.30;;;4.57;;
4915;SDS011;70796;52.406;13.230;2023-07-13T02:29:45;5.70;;;4.57;;
4915;SDS011;70796;52.406;13.230;2023-07-13T02:32:12;6.30;;;4.60;;
4915;SDS011;70796;52.406;13.230;2023-07-13T02:34:40;8.53;;;4.97;;
4915;SDS011;70796;52.406;13.230;2023-07-13T02:37:07;7.20;;;4.60;;
4915;SDS011;70796;52.406;13.230;2023-07-13T02:39:34;6.10;;;4.53;;
4915;SDS011;70796;52.406;13.230;2023-07-13T02:42:02;5.97;;;4.77;;
4915;SDS011;70796;52.406;13.230;2023-07-13T02:44:29;5.87;;;4.90;;
4915;SDS011;70796;52.406;13.230;2023-07-13T02:46:56;6.13;;;4.43;;
4915;SDS011;70796;52.406;13.230;2023-07-13T02:49:23;5.80;;;4.90;;
4915;SDS011;70796;52.406;13.230;2023-07-13T02:51:49;7.77;;;5.40;;
4915;SDS011;70796;52.406;13.230;2023-07-13T02:54:17;6.37;;;4.80;;
4915;SDS011;70796;52.406;13.230;2023-07-13T02:56:43;6.37;;;4.30;;
4915;SDS011;70796;52.406;13.230;2023-07-13T02:59:10;5.40;;;4.30;;
4915;SDS011;70796;52.406;13.230;2023-07-13T03:01:38;9.33;;;5.37;;
4915;SDS011;70796;52.406;13.230;2023-07-13T03:04:06;7.57;;;4.50;;
4915;SDS011;70796;52.406;13.230;2023-07-13T03:06:33;7.10;;;5.23;;
4915;SDS011;70796;52.406;13.230;2023-07-13T03:09:02;9.20;;;4.90;;
4915;SDS011;70796;52.406;13.230;2023-07-13T03:11:32;6.77;;;5.20;;
4915;SDS011;70796;52.406;13.230;2023-07-13T03:14:12;9.50;;;5.27;;
4915;SDS011;70796;52.406;13.230;2023-07-13T03:16:39;13.83;;;5.00;;
4915;SDS011;70796;52.406;13.230;2023-07-13T03:19:06;6.07;;;4.40;;
4915;SDS011;70796;52.406;13.230;2023-07-13T03:21:33;9.07;;;5.10;;
4915;SDS011;70796;52.406;13.230;2023-07-13T03:24:00;7.40;;;4.70;;
4915;SDS011;70796;52.406;13.230;2023-07-13T03:26:27;7.50;;;4.10;;
4915;SDS011;70796;52.406;13.230;2023-07-13T03:28:55;5.93;;;4.93;;
4915;SDS011;70796;52.406;13.230;2023-07-13T03:31:27;7.20;;;5.20;;
4915;SDS011;70796;52.406;13.230;2023-07-13T03:33:56;5.37;;;4.40;;
4915;SDS011;70796;52.406;13.230;2023-07-13T03:36:25;6.00;;;4.27;;
4915;SDS011;70796;52.406;13.230;2023-07-13T03:38:57;12.13;;;4.87;;
4915;SDS011;70796;52.406;13.230;2023-07-13T03:41:34;7.43;;;4.90;;
4915;SDS011;70796;52.406;13.230;2023-07-13T03:44:00;7.70;;;4.10;;
4915;SDS011;70796;52.406;13.230;2023-07-13T03:46:27;7.33;;;4.40;;
4915;SDS011;70796;52.406;13.230;2023-07-13T03:48:56;5.30;;;4.17;;
4915;SDS011;70796;52.406;13.230;2023-07-13T03:51:23;7.10;;;4.47;;
4915;SDS011;70796;52.406;13.230;2023-07-13T03:53:51;4.37;;;3.90;;
4915;SDS011;70796;52.406;13.230;2023-07-13T03:56:21;5.10;;;4.07;;
4915;SDS011;70796;52.406;13.230;2023-07-13T03:58:52;7.27;;;4.40;;
4915;SDS011;70796;52.406;13.230;2023-07-13T04:01:23;9.50;;;4.57;;
4915;SDS011;70796;52.406;13.230;2023-07-13T04:03:53;6.83;;;4.10;;
4915;SDS011;70796;52.406;13.230;2023-07-13T04:06:25;6.23;;;4.43;;
4915;SDS011;70796;52.406;13.230;2023-07-13T04:08:57;7.07;;;3.60;;
4915;SDS011;70796;52.406;13.230;2023-07-13T04:11:26;6.70;;;4.00;;
4915;SDS011;70796;52.406;13.230;2023-07-13T04:13:55;6.23;;;2.90;;
4915;SDS011;70796;52.406;13.230;2023-07-13T04:16:22;3.10;;;2.70;;
4915;SDS011;70796;52.406;13.230;2023-07-13T04:18:51;4.07;;;2.70;;
4915;SDS011;70796;52.406;13.230;2023-07-13T04:21:23;4.23;;;3.10;;
4915;SDS011;70796;52.406;13.230;2023-07-13T04:23:50;3.90;;;2.50;;
4915;SDS011;70796;52.406;13.230;2023-07-13T04:26:17;2.97;;;2.60;;
4915;SDS011;70796;52.406;13.230;2023-07-13T04:28:47;2.30;;;2.10;;
4915;SDS011;70796;52.406;13.230;2023-07-13T04:31:14;2.40;;;2.20;;
4915;SDS011;70796;52.406;13.230;2023-07-13T04:33:41;6.90;;;2.77;;
4915;SDS011;70796;52.406;13.230;2023-07-13T04:36:10;3.73;;;2.20;;
4915;SDS011;70796;52.406;13.230;2023-07-13T04:38:37;6.00;;;2.30;;
4915;SDS011;70796;52.406;13.230;2023-07-13T04:41:05;5.60;;;2.20;;
4915;SDS011;70796;52.406;13.230;2023-07-13T04:43:36;3.40;;;2.10;;
4915;SDS011;70796;52.406;13.230;2023-07-13T04:46:07;3.70;;;2.20;;
4915;SDS011;70796;52.406;13.230;2023-07-13T04:48:36;2.30;;;2.10;;
4915;SDS011;70796;52.406;13.230;2023-07-13T04:51:04;3.30;;;2.10;;
4915;SDS011;70796;52.406;13.230;2023-07-13T04:53:32;4.70;;;1.73;;
4915;SDS011;70796;52.406;13.230;2023-07-13T04:56:00;3.47;;;1.63;;
4915;SDS011;70796;52.406;13.230;2023-07-13T04:58:27;4.63;;;2.00;;
4915;SDS011;70796;52.406;13.230;2023-07-13T05:01:01;4.37;;;1.90;;
4915;SDS011;70796;52.406;13.230;2023-07-13T05:03:29;5.83;;;2.20;;
4915;SDS011;70796;52.406;13.230;2023-07-13T05:05:57;5.53;;;2.00;;
4915;SDS011;70796;52.406;13.230;2023-07-13T05:08:25;3.20;;;1.90;;
4915;SDS011;70796;52.406;13.230;2023-07-13T05:10:52;2.20;;;1.70;;
4915;SDS011;70796;52.406;13.230;2023-07-13T05:13:19;4.83;;;1.90;;
4915;SDS011;70796;52.406;13.230;2023-07-13T05:15:52;4.83;;;2.10;;
4915;SDS011;70796;52.406;13.230;2023-07-13T05:18:22;1.83;;;1.63;;
4915;SDS011;70796;52.406;13.230;2023-07-13T05:20:56;2.20;;;1.80;;
4915;SDS011;70796;52.406;13.230;2023-07-13T05:23:28;5.70;;;2.27;;
4915;SDS011;70796;52.406;13.230;2023-07-13T05:25:57;2.37;;;1.97;;
4915;SDS011;70796;52.406;13.230;2023-07-13T05:28:24;2.57;;;1.77;;
4915;SDS011;70796;52.406;13.230;2023-07-13T05:30:52;2.30;;;1.70;;
4915;SDS011;70796;52.406;13.230;2023-07-13T05:33:21;3.70;;;1.90;;
4915;SDS011;70796;52.406;13.230;2023-07-13T05:35:48;4.43;;;2.07;;
4915;SDS011;70796;52.406;13.230;2023-07-13T05:38:14;2.70;;;1.73;;
4915;SDS011;70796;52.406;13.230;2023-07-13T05:40:44;6.10;;;1.73;;
4915;SDS011;70796;52.406;13.230;2023-07-13T05:43:12;3.63;;;1.83;;
4915;SDS011;70796;52.406;13.230;2023-07-13T05:45:39;2.30;;;1.83;;
4915;SDS011;70796;52.406;13.230;2023-07-13T05:48:05;3.77;;;1.90;;
4915;SDS011;70796;52.406;13.230;2023-07-13T05:50:33;5.67;;;1.87;;
4915;SDS011;70796;52.406;13.230;2023-07-13T05:53:00;2.07;;;1.83;;
4915;SDS011;70796;52.406;13.230;2023-07-13T05:55:27;3.00;;;1.80;;
4915;SDS011;70796;52.406;13.230;2023-07-13T05:57:53;3.37;;;1.50;;
4915;SDS011;70796;52.406;13.230;2023-07-13T06:00:20;2.93;;;1.67;;
4915;SDS011;70796;52.406;13.230;2023-07-13T06:02:48;1.93;;;1.67;;
4915;SDS011;70796;52.406;13.230;2023-07-13T06:05:14;4.60;;;2.00;;
4915;SDS011;70796;52.406;13.230;2023-07-13T06:07:41;5.03;;;2.33;;
4915;SDS011;70796;52.406;13.230;2023-07-13T06:10:08;5.50;;;2.53;;
4915;SDS011;70796;52.406;13.230;2023-07-13T06:12:36;2.50;;;1.73;;
4915;SDS011;70796;52.406;13.230;2023-07-13T06:15:03;3.70;;;1.90;;
4915;SDS011;70796;52.406;13.230;2023-07-13T06:17:30;2.90;;;1.90;;
4915;SDS011;70796;52.406;13.230;2023-07-13T06:19:57;5.97;;;1.80;;
4915;SDS011;70796;52.406;13.230;2023-07-13T06:22:23;4.13;;;1.60;;
4915;SDS011;70796;52.406;13.230;2023-07-13T06:24:50;5.57;;;2.00;;
4915;SDS011;70796;52.406;13.230;2023-07-13T06:27:18;4.33;;;1.70;;
4915;SDS011;70796;52.406;13.230;2023-07-13T06:29:44;5.93;;;1.80;;
4915;SDS011;70796;52.406;13.230;2023-07-13T06:32:11;5.43;;;2.20;;
4915;SDS011;70796;52.406;13.230;2023-07-13T06:34:38;4.43;;;2.33;;
4915;SDS011;70796;52.406;13.230;2023-07-13T06:37:08;2.23;;;1.60;;
4915;SDS011;70796;52.406;13.230;2023-07-13T06:39:35;2.47;;;1.83;;
4915;SDS011;70796;52.406;13.230;2023-07-13T06:42:02;4.63;;;2.10;;
4915;SDS011;70796;52.406;13.230;2023-07-13T06:44:29;2.83;;;2.37;;
4915;SDS011;70796;52.406;13.230;2023-07-13T06:46:56;4.20;;;1.97;;
4915;SDS011;70796;52.406;13.230;2023-07-13T06:49:22;6.60;;;2.30;;
4915;SDS011;70796;52.406;13.230;2023-07-13T06:51:49;4.37;;;1.87;;
4915;SDS011;70796;52.406;13.230;2023-07-13T06:54:16;4.77;;;2.07;;
4915;SDS011;70796;52.406;13.230;2023-07-13T06:56:42;6.03;;;2.03;;
4915;SDS011;70796;52.406;13.230;2023-07-13T06:59:09;4.07;;;1.97;;
4915;SDS011;70796;52.406;13.230;2023-07-13T07:01:37;3.13;;;1.70;;
4915;SDS011;70796;52.406;13.230;2023-07-13T07:04:06;4.53;;;2.03;;
4915;SDS011;70796;52.406;13.230;2023-07-13T07:06:33;2.30;;;1.70;;
4915;SDS011;70796;52.406;13.230;2023-07-13T07:08:59;4.97;;;1.93;;
4915;SDS011;70796;52.406;13.230;2023-07-13T07:11:26;6.40;;;1.70;;
4915;SDS011;70796;52.406;13.230;2023-07-13T07:13:53;2.23;;;1.70;;
4915;SDS011;70796;52.406;13.230;2023-07-13T07:16:20;2.57;;;1.90;;
4915;SDS011;70796;52.406;13.230;2023-07-13T07:18:47;4.07;;;1.63;;
4915;SDS011;70796;52.406;13.230;2023-07-13T07:21:13;5.40;;;2.23;;
4915;SDS011;70796;52.406;13.230;2023-07-13T07:23:43;3.00;;;1.77;;
4915;SDS011;70796;52.406;13.230;2023-07-13T07:26:10;6.57;;;1.90;;
4915;SDS011;70796;52.406;13.230;2023-07-13T07:28:36;6.80;;;2.00;;
4915;SDS011;70796;52.406;13.230;2023-07-13T07:31:06;2.27;;;1.37;;
4915;SDS011;70796;52.406;13.230;2023-07-13T07:33:36;2.70;;;1.93;;
4915;SDS011;70796;52.406;13.230;2023-07-13T07:36:02;6.23;;;1.87;;
4915;SDS011;70796;52.406;13.230;2023-07-13T07:38:33;12.40;;;2.07;;
4915;SDS011;70796;52.406;13.230;2023-07-13T07:41:04;3.23;;;1.50;;
4915;SDS011;70796;52.406;13.230;2023-07-13T07:43:33;5.90;;;1.50;;
4915;SDS011;70796;52.406;13.230;2023-07-13T07:46:00;2.17;;;1.20;;
4915;SDS011;70796;52.406;13.230;2023-07-13T07:48:33;7.60;;;1.30;;
4915;SDS011;70796;52.406;13.230;2023-07-13T07:51:00;2.30;;;1.80;;
4915;SDS011;70796;52.406;13.230;2023-07-13T07:53:26;4.63;;;1.83;;
4915;SDS011;70796;52.406;13.230;2023-07-13T07:55:52;2.20;;;1.60;;
4915;SDS011;70796;52.406;13.230;2023-07-13T07:58:21;2.07;;;1.40;;
4915;SDS011;70796;52.406;13.230;2023-07-13T08:00:51;3.10;;;1.63;;
4915;SDS011;70796;52.406;13.230;2023-07-13T08:03:20;2.93;;;1.67;;
4915;SDS011;70796;52.406;13.230;2023-07-13T08:05:52;7.60;;;1.77;;
4915;SDS011;70796;52.406;13.230;2023-07-13T08:08:38;2.20;;;1.40;;
4915;SDS011;70796;52.406;13.230;2023-07-13T08:11:05;1.90;;;1.70;;
4915;SDS011;70796;52.406;13.230;2023-07-13T08:13:36;3.33;;;1.50;;
4915;SDS011;70796;52.406;13.230;2023-07-13T08:16:04;2.67;;;1.57;;
4915;SDS011;70796;52.406;13.230;2023-07-13T08:18:31;2.33;;;1.80;;
4915;SDS011;70796;52.406;13.230;2023-07-13T08:20:57;3.90;;;1.53;;
4915;SDS011;70796;52.406;13.230;2023-07-13T08:23:25;2.53;;;1.77;;
4915;SDS011;70796;52.406;13.230;2023-07-13T08:25:52;8.40;;;1.70;;
4915;SDS011;70796;52.406;13.230;2023-07-13T08:28:19;1.80;;;1.33;;
4915;SDS011;70796;52.406;13.230;2023-07-13T08:30:46;6.27;;;1.50;;
4915;SDS011;70796;52.406;13.230;2023-07-13T08:33:17;2.60;;;1.50;;
4915;SDS011;70796;52.406;13.230;2023-07-13T08:35:48;5.13;;;1.80;;
4915;SDS011;70796;52.406;13.230;2023-07-13T08:38:16;3.90;;;1.57;;
4915;SDS011;70796;52.406;13.230;2023-07-13T08:40:43;4.87;;;1.83;;
4915;SDS011;70796;52.406;13.230;2023-07-13T08:43:17;3.83;;;1.63;;
4915;SDS011;70796;52.406;13.230;2023-07-13T08:45:46;3.23;;;1.80;;
4915;SDS011;70796;52.406;13.230;2023-07-13T08:48:24;2.30;;;1.60;;
4915;SDS011;70796;52.406;13.230;2023-07-13T08:53:41;3.93;;;1.97;;
4915;SDS011;70796;52.406;13.230;2023-07-13T08:56:16;3.83;;;1.23;;
4915;SDS011;70796;52.406;13.230;2023-07-13T08:58:46;2.33;;;1.10;;
4915;SDS011;70796;52.406;13.230;2023-07-13T09:01:20;3.33;;;1.40;;
4915;SDS011;70796;52.406;13.230;2023-07-13T09:06:39;1.63;;;1.50;;
4915;SDS011;70796;52.406;13.230;2023-07-13T09:09:23;2.20;;;1.27;;
4915;SDS011;70796;52.406;13.230;2023-07-13T09:12:08;5.10;;;1.87;;
4915;SDS011;70796;52.406;13.230;2023-07-13T09:14:42;4.40;;;1.93;;
4915;SDS011;70796;52.406;13.230;2023-07-13T09:17:12;12.13;;;1.80;;
4915;SDS011;70796;52.406;13.230;2023-07-13T09:19:49;2.83;;;1.57;;
4915;SDS011;70796;52.406;13.230;2023-07-13T09:22:20;3.37;;;1.90;;
4915;SDS011;70796;52.406;13.230;2023-07-13T09:24:50;2.80;;;1.70;;
4915;SDS011;70796;52.406;13.230;2023-07-13T09:27:29;3.23;;;1.80;;
4915;SDS011;70796;52.406;13.230;2023-07-13T09:30:01;12.30;;;2.20;;
4915;SDS011;70796;52.406;13.230;2023-07-13T09:32:47;4.53;;;2.50;;
4915;SDS011;70796;52.406;13.230;2023-07-13T09:35:19;4.63;;;2.47;;
4915;SDS011;70796;52.406;13.230;2023-07-13T09:37:48;2.43;;;1.70;;
4915;SDS011;70796;52.406;13.230;2023-07-13T09:40:24;3.33;;;2.10;;
4915;SDS011;70796;52.406;13.230;2023-07-13T09:42:59;5.63;;;2.57;;
4915;SDS011;70796;52.406;13.230;2023-07-13T09:45:27;5.00;;;2.67;;
4915;SDS011;70796;52.406;13.230;2023-07-13T09:48:05;4.53;;;2.87;;
4915;SDS011;70796;52.406;13.230;2023-07-13T09:50:34;4.83;;;2.23;;
4915;SDS011;70796;52.406;13.230;2023-07-13T09:53:00;3.83;;;2.33;;
4915;SDS011;70796;52.406;13.230;2023-07-13T09:55:31;6.77;;;2.40;;
4915;SDS011;70796;52.406;13.230;2023-07-13T09:58:21;3.97;;;2.17;;
4915;SDS011;70796;52.406;13.230;2023-07-13T10:00:55;3.03;;;1.80;;
4915;SDS011;70796;52.406;13.230;2023-07-13T10:03:33;4.70;;;2.30;;
4915;SDS011;70796;52.406;13.230;2023-07-13T10:06:17;7.10;;;2.17;;
4915;SDS011;70796;52.406;13.230;2023-07-13T10:08:47;2.53;;;2.17;;
4915;SDS011;70796;52.406;13.230;2023-07-13T10:11:19;4.63;;;2.13;;
4915;SDS011;70796;52.406;13.230;2023-07-13T10:13:53;6.73;;;2.27;;
4915;SDS011;70796;52.406;13.230;2023-07-13T10:16:23;5.70;;;2.13;;
4915;SDS011;70796;52.406;13.230;2023-07-13T10:18:53;3.23;;;2.33;;
4915;SDS011;70796;52.406;13.230;2023-07-13T10:21:23;6.10;;;2.47;;
4915;SDS011;70796;52.406;13.230;2023-07-13T10:24:18;2.83;;;2.57;;
4915;SDS011;70796;52.406;13.230;2023-07-13T10:29:54;4.87;;;2.70;;
4915;SDS011;70796;52.406;13.230;2023-07-13T10:32:25;5.07;;;2.30;;
4915;SDS011;70796;52.406;13.230;2023-07-13T10:34:52;4.10;;;2.67;;
4915;SDS011;70796;52.406;13.230;2023-07-13T10:37:22;6.47;;;2.20;;
4915;SDS011;70796;52.406;13.230;2023-07-13T10:39:52;3.13;;;2.40;;
4915;SDS011;70796;52.406;13.230;2023-07-13T10:42:43;5.80;;;3.00;;
4915;SDS011;70796;52.406;13.230;2023-07-13T10:45:17;8.80;;;2.40;;
4915;SDS011;70796;52.406;13.230;2023-07-13T10:47:46;5.47;;;2.23;;
4915;SDS011;70796;52.406;13.230;2023-07-13T10:50:17;2.90;;;2.13;;
4915;SDS011;70796;52.406;13.230;2023-07-13T10:55:35;5.70;;;2.53;;
4915;SDS011;70796;52.406;13.230;2023-07-13T10:58:12;5.20;;;2.40;;
4915;SDS011;70796;52.406;13.230;2023-07-13T11:00:46;5.50;;;2.60;;
4915;SDS011;70796;52.406;13.230;2023-07-13T11:03:16;3.27;;;2.30;;
4915;SDS011;70796;52.406;13.230;2023-07-13T11:05:50;8.63;;;2.77;;
4915;SDS011;70796;52.406;13.230;2023-07-13T11:08:19;3.70;;;2.60;;
4915;SDS011;70796;52.406;13.230;2023-07-13T11:18:48;3.20;;;2.43;;
4915;SDS011;70796;52.406;13.230;2023-07-13T11:21:18;6.80;;;2.53;;
4915;SDS011;70796;52.406;13.230;2023-07-13T11:24:16;12.53;;;2.53;;
4915;SDS011;70796;52.406;13.230;2023-07-13T11:29:24;9.47;;;2.43;;
4915;SDS011;70796;52.406;13.230;2023-07-13T11:31:55;7.77;;;2.40;;
4915;SDS011;70796;52.406;13.230;2023-07-13T11:34:36;6.53;;;2.17;;
4915;SDS011;70796;52.406;13.230;2023-07-13T11:37:10;3.00;;;2.00;;
4915;SDS011;70796;52.406;13.230;2023-07-13T11:39:42;3.63;;;2.17;;
4915;SDS011;70796;52.406;13.230;2023-07-13T11:42:13;4.33;;;2.30;;
4915;SDS011;70796;52.406;13.230;2023-07-13T11:44:46;4.00;;;1.97;;
4915;SDS011;70796;52.406;13.230;2023-07-13T11:47:33;6.73;;;1.87;;
4915;SDS011;70796;52.406;13.230;2023-07-13T11:50:02;9.17;;;2.53;;
4915;SDS011;70796;52.406;13.230;2023-07-13T11:52:35;5.83;;;2.20;;
4915;SDS011;70796;52.406;13.230;2023-07-13T11:55:13;4.30;;;2.00;;
4915;SDS011;70796;52.406;13.230;2023-07-13T11:57:44;3.33;;;1.80;;
4915;SDS011;70796;52.406;13.230;2023-07-13T12:00:14;4.37;;;2.10;;
4915;SDS011;70796;52.406;13.230;2023-07-13T12:02:44;3.73;;;1.57;;
4915;SDS011;70796;52.406;13.230;2023-07-13T12:05:13;3.23;;;1.90;;
4915;SDS011;70796;52.406;13.230;2023-07-13T12:07:42;3.73;;;2.33;;
4915;SDS011;70796;52.406;13.230;2023-07-13T12:12:56;2.20;;;1.67;;
4915;SDS011;70796;52.406;13.230;2023-07-13T12:15:28;4.37;;;2.27;;
4915;SDS011;70796;52.406;13.230;2023-07-13T12:17:59;6.30;;;2.10;;
4915;SDS011;70796;52.406;13.230;2023-07-13T12:20:37;5.00;;;2.07;;
4915;SDS011;70796;52.406;13.230;2023-07-13T12:23:05;3.60;;;1.90;;
4915;SDS011;70796;52.406;13.230;2023-07-13T12:25:35;3.73;;;1.93;;
4915;SDS011;70796;52.406;13.230;2023-07-13T12:28:19;3.27;;;2.10;;
4915;SDS011;70796;52.406;13.230;2023-07-13T12:30:57;5.23;;;1.77;;
4915;SDS011;70796;52.406;13.230;2023-07-13T12:33:24;10.00;;;1.83;;
4915;SDS011;70796;52.406;13.230;2023-07-13T12:35:54;3.53;;;1.93;;
4915;SDS011;70796;52.406;13.230;2023-07-13T12:38:21;4.50;;;1.77;;
4915;SDS011;70796;52.406;13.230;2023-07-13T12:40:51;6.93;;;1.60;;
4915;SDS011;70796;52.406;13.230;2023-07-13T12:43:22;3.77;;;1.67;;
4915;SDS011;70796;52.406;13.230;2023-07-13T12:45:57;4.77;;;1.70;;
4915;SDS011;70796;52.406;13.230;2023-07-13T12:48:24;2.20;;;1.67;;
4915;SDS011;70796;52.406;13.230;2023-07-13T12:51:12;3.10;;;1.97;;
4915;SDS011;70796;52.406;13.230;2023-07-13T12:53:42;5.20;;;1.90;;
4915;SDS011;70796;52.406;13.230;2023-07-13T12:56:21;2.73;;;1.60;;
4915;SDS011;70796;52.406;13.230;2023-07-13T12:58:49;6.10;;;1.30;;
4915;SDS011;70796;52.406;13.230;2023-07-13T13:01:23;7.40;;;1.67;;
4915;SDS011;70796;52.406;13.230;2023-07-13T13:03:53;4.20;;;1.60;;
4915;SDS011;70796;52.406;13.230;2023-07-13T13:06:26;3.10;;;1.30;;
4915;SDS011;70796;52.406;13.230;2023-07-13T13:08:56;5.50;;;1.60;;
4915;SDS011;70796;52.406;13.230;2023-07-13T13:11:28;1.97;;;1.30;;
4915;SDS011;70796;52.406;13.230;2023-07-13T13:13:56;3.50;;;1.87;;
4915;SDS011;70796;52.406;13.230;2023-07-13T13:18:55;3.57;;;1.40;;
4915;SDS011;70796;52.406;13.230;2023-07-13T13:21:25;2.80;;;1.30;;
4915;SDS011;70796;52.406;13.230;2023-07-13T13:23:52;2.60;;;1.53;;
4915;SDS011;70796;52.406;13.230;2023-07-13T13:26:21;3.63;;;1.67;;
4915;SDS011;70796;52.406;13.230;2023-07-13T13:28:48;6.20;;;1.67;;
4915;SDS011;70796;52.406;13.230;2023-07-13T13:31:14;4.80;;;2.13;;
4915;SDS011;70796;52.406;13.230;2023-07-13T13:33:42;4.80;;;1.30;;
4915;SDS011;70796;52.406;13.230;2023-07-13T13:36:18;24.87;;;2.90;;
4915;SDS011;70796;52.406;13.230;2023-07-13T13:38:46;5.27;;;2.00;;
4915;SDS011;70796;52.406;13.230;2023-07-13T13:41:15;3.67;;;1.33;;
4915;SDS011;70796;52.406;13.230;2023-07-13T13:43:42;2.87;;;1.60;;
4915;SDS011;70796;52.406;13.230;2023-07-13T13:46:15;6.10;;;1.83;;
4915;SDS011;70796;52.406;13.230;2023-07-13T13:48:44;6.53;;;1.27;;
4915;SDS011;70796;52.406;13.230;2023-07-13T13:51:15;3.43;;;1.20;;
4915;SDS011;70796;52.406;13.230;2023-07-13T13:53:45;5.43;;;1.60;;
4915;SDS011;70796;52.406;13.230;2023-07-13T13:56:12;2.30;;;1.30;;
4915;SDS011;70796;52.406;13.230;2023-07-13T13:58:40;4.63;;;1.50;;
4915;SDS011;70796;52.406;13.230;2023-07-13T14:01:16;2.20;;;1.30;;
4915;SDS011;70796;52.406;13.230;2023-07-13T14:03:43;1.37;;;1.27;;
4915;SDS011;70796;52.406;13.230;2023-07-13T14:06:13;5.17;;;1.60;;
4915;SDS011;70796;52.406;13.230;2023-07-13T14:08:44;7.93;;;1.63;;
4915;SDS011;70796;52.406;13.230;2023-07-13T14:11:11;3.03;;;1.30;;
4915;SDS011;70796;52.406;13.230;2023-07-13T14:13:49;3.00;;;1.30;;
4915;SDS011;70796;52.406;13.230;2023-07-13T14:16:18;3.67;;;1.50;;
4915;SDS011;70796;52.406;13.230;2023-07-13T14:18:48;4.40;;;1.43;;
4915;SDS011;70796;52.406;13.230;2023-07-13T14:21:16;1.93;;;1.10;;
4915;SDS011;70796;52.406;13.230;2023-07-13T14:23:48;2.90;;;1.30;;
4915;SDS011;70796;52.406;13.230;2023-07-13T14:26:16;2.70;;;1.20;;
4915;SDS011;70796;52.406;13.230;2023-07-13T14:28:45;1.53;;;1.13;;
4915;SDS011;70796;52.406;13.230;2023-07-13T14:31:23;1.83;;;1.10;;
4915;SDS011;70796;52.406;13.230;2023-07-13T14:33:57;3.23;;;1.30;;
4915;SDS011;70796;52.406;13.230;2023-07-13T14:36:28;7.43;;;1.50;;
4915;SDS011;70796;52.406;13.230;2023-07-13T14:38:59;1.60;;;1.17;;
4915;SDS011;70796;52.406;13.230;2023-07-13T14:41:29;1.63;;;1.10;;
4915;SDS011;70796;52.406;13.230;2023-07-13T14:43:56;3.70;;;1.50;;
4915;SDS011;70796;52.406;13.230;2023-07-13T14:46:29;3.07;;;1.23;;
4915;SDS011;70796;52.406;13.230;2023-07-13T14:49:00;4.30;;;1.20;;
4915;SDS011;70796;52.406;13.230;2023-07-13T14:51:30;1.50;;;1.20;;
4915;SDS011;70796;52.406;13.230;2023-07-13T14:53:57;2.83;;;1.07;;
4915;SDS011;70796;52.406;13.230;2023-07-13T14:56:25;1.20;;;1.00;;
4915;SDS011;70796;52.406;13.230;2023-07-13T14:58:52;2.90;;;1.30;;
4915;SDS011;70796;52.406;13.230;2023-07-13T15:01:19;2.50;;;1.20;;
4915;SDS011;70796;52.406;13.230;2023-07-13T15:03:47;1.73;;;1.20;;
4915;SDS011;70796;52.406;13.230;2023-07-13T15:06:15;1.70;;;1.10;;
4915;SDS011;70796;52.406;13.230;2023-07-13T15:08:43;3.30;;;1.10;;
4915;SDS011;70796;52.406;13.230;2023-07-13T15:11:10;4.93;;;1.17;;
4915;SDS011;70796;52.406;13.230;2023-07-13T15:13:39;1.43;;;0.90;;
4915;SDS011;70796;52.406;13.230;2023-07-13T15:16:10;8.03;;;1.17;;
4915;SDS011;70796;52.406;13.230;2023-07-13T15:18:41;1.90;;;1.10;;
4915;SDS011;70796;52.406;13.230;2023-07-13T15:21:11;6.63;;;1.37;;
4915;SDS011;70796;52.406;13.230;2023-07-13T15:23:45;3.57;;;1.30;;
4915;SDS011;70796;52.406;13.230;2023-07-13T15:26:13;3.43;;;1.47;;
4915;SDS011;70796;52.406;13.230;2023-07-13T15:28:42;2.60;;;1.10;;
4915;SDS011;70796;52.406;13.230;2023-07-13T15:31:25;2.13;;;0.93;;
4915;SDS011;70796;52.406;13.230;2023-07-13T15:34:15;4.63;;;1.37;;
4915;SDS011;70796;52.406;13.230;2023-07-13T15:36:45;4.47;;;1.50;;